Time,TemperatureF,DewpointF,PressureIn,WindDirection,WindDirectionDegrees,WindSpeedMPH,WindSpeedGustMPH,Humidity,HourlyPrecipIn,Conditions,Clouds,dailyrainin,SoftwareType,DateUTC
2013-01-29 00:04:00,41.1,38.7,30.25,East,97,0.0,0.0,91,0.00,,---,0.00,VWS V14.01,2013-01-29 08:04:00,
2013-01-29 00:09:00,40.8,38.4,30.25,East,97,0.0,0.0,91,0.00,,---,0.00,VWS V14.01,2013-01-29 08:09:00,
2013-01-29 00:14:00,40.6,38.5,30.25,East,97,0.0,0.0,92,0.00,,---,0.00,VWS V14.01,2013-01-29 08:14:00,
2013-01-29 00:19:00,40.8,38.7,30.24,East,97,0.0,0.0,92,0.00,,---,0.00,VWS V14.01,2013-01-29 08:19:00,
2013-01-29 00:24:00,41.1,39.0,30.24,East,97,0.0,0.0,92,0.00,,---,0.00,VWS V14.01,2013-01-29 08:24:00,
2013-01-29 00:29:00,41.1,39.0,30.24,East,97,0.0,0.0,92,0.00,,---,0.00,VWS V14.01,2013-01-29 08:29:00,
2013-01-29 00:34:00,40.9,38.8,30.25,East,97,0.0,0.0,92,0.00,,---,0.00,VWS V14.01,2013-01-29 08:34:00,
2013-01-29 00:39:00,40.9,38.8,30.25,East,97,0.0,0.0,92,0.00,,---,0.00,VWS V14.01,2013-01-29 08:39:00,
2013-01-29 00:44:00,40.8,38.7,30.25,East,97,0.0,0.0,92,0.00,,---,0.00,VWS V14.01,2013-01-29 08:44:00,
2013-01-29 00:49:00,40.9,38.8,30.25,East,97,0.0,0.0,92,0.00,,---,0.00,VWS V14.01,2013-01-29 08:49:00,
2013-01-29 00:54:00,41.2,39.1,30.25,East,97,0.0,0.0,92,0.00,,---,0.00,VWS V14.01,2013-01-29 08:54:00,
2013-01-29 00:59:00,41.3,39.2,30.25,East,97,0.0,0.0,92,0.00,,---,0.00,VWS V14.01,2013-01-29 08:59:00,
2013-01-29 01:04:00,41.3,39.2,30.25,East,97,0.0,0.0,92,0.00,,---,0.00,VWS V14.01,2013-01-29 09:04:00,
2013-01-29 01:09:00,41.2,39.1,30.25,East,97,0.0,0.0,92,0.00,,---,0.00,VWS V14.01,2013-01-29 09:09:00,
2013-01-29 01:14:00,41.1,39.0,30.25,East,97,0.0,0.0,92,0.00,,---,0.00,VWS V14.01,2013-01-29 09:14:00,
2013-01-29 01:19:00,40.6,38.2,30.24,East,97,0.0,0.0,91,0.00,,---,0.00,VWS V14.01,2013-01-29 09:19:00,
2013-01-29 01:24:00,40.3,38.2,30.24,East,97,0.0,0.0,92,0.00,,---,0.00,VWS V14.01,2013-01-29 09:24:00,
2013-01-29 01:29:00,40.1,38.0,30.24,East,97,0.0,0.0,92,0.00,,---,0.00,VWS V14.01,2013-01-29 09:29:00,
2013-01-29 01:34:00,39.9,37.8,30.25,East,97,0.0,0.0,92,0.00,,---,0.00,VWS V14.01,2013-01-29 09:34:00,
2013-01-29 01:39:00,39.5,37.4,30.25,East,97,0.0,0.0,92,0.00,,---,0.00,VWS V14.01,2013-01-29 09:39:00,
2013-01-29 01:44:00,39.6,37.5,30.25,East,97,0.0,0.0,92,0.00,,---,0.00,VWS V14.01,2013-01-29 09:44:00,
2013-01-29 01:49:00,39.9,37.8,30.25,East,97,0.0,0.0,92,0.00,,---,0.00,VWS V14.01,2013-01-29 09:49:00,
2013-01-29 01:54:00,39.6,37.5,30.25,East,97,0.0,0.0,92,0.00,,---,0.00,VWS V14.01,2013-01-29 09:54:00,
2013-01-29 01:59:00,39.2,37.1,30.25,East,97,0.0,0.0,92,0.00,,---,0.00,VWS V14.01,2013-01-29 09:59:00,
2013-01-29 02:04:00,39.3,37.5,30.26,East,97,0.0,0.0,93,0.00,,---,0.00,VWS V14.01,2013-01-29 10:04:00,
2013-01-29 02:09:00,39.3,37.5,30.26,East,97,0.0,0.0,93,0.00,,---,0.00,VWS V14.01,2013-01-29 10:09:00,
2013-01-29 02:14:00,39.2,37.3,30.26,East,97,0.0,0.0,93,0.00,,---,0.00,VWS V14.01,2013-01-29 10:14:00,
2013-01-29 02:19:00,38.9,37.0,30.26,East,97,0.0,0.0,93,0.00,,---,0.00,VWS V14.01,2013-01-29 10:19:00,
2013-01-29 02:24:00,38.8,37.0,30.26,East,97,0.0,0.0,93,0.00,,---,0.00,VWS V14.01,2013-01-29 10:24:00,
2013-01-29 02:29:00,38.9,37.0,30.26,East,97,0.0,0.0,93,0.00,,---,0.00,VWS V14.01,2013-01-29 10:29:00,
2013-01-29 02:34:00,38.8,37.0,30.26,East,97,0.0,0.0,93,0.00,,---,0.00,VWS V14.01,2013-01-29 10:34:00,
2013-01-29 02:39:00,38.8,37.0,30.26,East,97,0.0,0.0,93,0.00,,---,0.00,VWS V14.01,2013-01-29 10:39:00,
2013-01-29 02:44:00,38.8,37.2,30.26,East,97,0.0,0.0,94,0.00,,---,0.00,VWS V14.01,2013-01-29 10:44:00,
2013-01-29 02:49:00,38.8,37.2,30.26,East,97,0.0,0.0,94,0.00,,---,0.00,VWS V14.01,2013-01-29 10:49:00,
2013-01-29 02:54:00,38.6,36.8,30.26,East,97,0.0,0.0,93,0.00,,---,0.00,VWS V14.01,2013-01-29 10:54:00,
2013-01-29 02:59:00,38.3,36.7,30.26,East,97,0.0,0.0,94,0.00,,---,0.00,VWS V14.01,2013-01-29 10:59:00,
2013-01-29 03:04:00,38.2,36.6,30.27,East,97,0.0,0.0,94,0.00,,---,0.00,VWS V14.01,2013-01-29 11:04:00,
2013-01-29 03:09:00,38.0,36.4,30.27,East,97,0.0,0.0,94,0.00,,---,0.00,VWS V14.01,2013-01-29 11:09:00,
2013-01-29 03:14:00,38.2,36.6,30.27,East,97,0.0,0.0,94,0.00,,---,0.00,VWS V14.01,2013-01-29 11:14:00,
2013-01-29 03:19:00,38.0,36.4,30.27,East,97,0.0,0.0,94,0.00,,---,0.00,VWS V14.01,2013-01-29 11:19:00,
2013-01-29 03:24:00,37.9,36.3,30.27,East,97,0.0,0.0,94,0.00,,---,0.00,VWS V14.01,2013-01-29 11:24:00,
2013-01-29 03:29:00,37.8,36.2,30.27,East,97,0.0,0.0,94,0.00,,---,0.00,VWS V14.01,2013-01-29 11:29:00,
2013-01-29 03:34:00,37.8,36.2,30.26,East,97,0.0,0.0,94,0.00,,---,0.00,VWS V14.01,2013-01-29 11:34:00,
2013-01-29 03:39:00,37.8,36.2,30.26,East,97,0.0,0.0,94,0.00,,---,0.00,VWS V14.01,2013-01-29 11:39:00,
2013-01-29 03:44:00,37.6,36.0,30.26,East,97,0.0,0.0,94,0.00,,---,0.00,VWS V14.01,2013-01-29 11:44:00,
2013-01-29 03:49:00,37.5,35.9,30.26,East,97,0.0,0.0,94,0.00,,---,0.00,VWS V14.01,2013-01-29 11:49:00,
2013-01-29 03:54:00,37.3,35.7,30.26,East,97,0.0,0.0,94,0.00,,---,0.00,VWS V14.01,2013-01-29 11:54:00,
2013-01-29 03:59:00,37.3,35.7,30.26,East,97,0.0,0.0,94,0.00,,---,0.00,VWS V14.01,2013-01-29 11:59:00,
2013-01-29 04:04:00,37.5,36.2,30.25,East,97,0.0,0.0,95,0.00,,---,0.00,VWS V14.01,2013-01-29 12:04:00,
2013-01-29 04:09:00,37.5,36.2,30.25,East,97,0.0,0.0,95,0.00,,---,0.00,VWS V14.01,2013-01-29 12:09:00,
2013-01-29 04:14:00,37.2,35.6,30.25,East,97,0.0,0.0,94,0.00,,---,0.00,VWS V14.01,2013-01-29 12:14:00,
2013-01-29 04:19:00,37.2,35.9,30.26,East,97,0.0,0.0,95,0.00,,---,0.00,VWS V14.01,2013-01-29 12:19:00,
2013-01-29 04:24:00,37.2,35.9,30.26,East,97,0.0,0.0,95,0.00,,---,0.00,VWS V14.01,2013-01-29 12:24:00,
2013-01-29 04:29:00,37.2,35.9,30.26,East,97,0.0,0.0,95,0.00,,---,0.00,VWS V14.01,2013-01-29 12:29:00,
2013-01-29 04:34:00,37.5,36.2,30.26,East,97,0.0,0.0,95,0.00,,---,0.00,VWS V14.01,2013-01-29 12:34:00,
2013-01-29 04:39:00,37.5,36.2,30.26,East,97,0.0,0.0,95,0.00,,---,0.00,VWS V14.01,2013-01-29 12:39:00,
2013-01-29 04:44:00,37.5,36.2,30.26,East,97,0.0,0.0,95,0.00,,---,0.00,VWS V14.01,2013-01-29 12:44:00,
2013-01-29 04:49:00,37.5,36.2,30.26,East,97,0.0,0.0,95,0.00,,---,0.00,VWS V14.01,2013-01-29 12:49:00,
2013-01-29 04:54:00,37.3,36.0,30.26,East,97,0.0,0.0,95,0.00,,---,0.00,VWS V14.01,2013-01-29 12:54:00,
2013-01-29 05:00:00,37.3,36.0,30.26,East,97,0.0,0.0,95,0.00,,---,0.00,VWS V14.01,2013-01-29 13:00:00,
2013-01-29 05:05:00,37.2,35.9,30.26,East,97,0.0,0.0,95,0.00,,---,0.00,VWS V14.01,2013-01-29 13:05:00,
2013-01-29 05:10:00,37.2,35.9,30.26,East,97,0.0,0.0,95,0.00,,---,0.00,VWS V14.01,2013-01-29 13:10:00,
2013-01-29 05:15:00,37.0,35.7,30.26,East,97,0.0,0.0,95,0.00,,---,0.00,VWS V14.01,2013-01-29 13:15:00,
2013-01-29 05:20:00,37.0,35.7,30.26,East,97,0.0,0.0,95,0.00,,---,0.00,VWS V14.01,2013-01-29 13:20:00,
2013-01-29 05:25:00,37.0,35.7,30.26,East,97,0.0,0.0,95,0.00,,---,0.00,VWS V14.01,2013-01-29 13:25:00,
2013-01-29 05:30:00,37.3,36.3,30.26,East,97,0.0,0.0,96,0.00,,---,0.00,VWS V14.01,2013-01-29 13:30:00,
2013-01-29 05:35:00,36.9,35.6,30.26,East,97,0.0,0.0,95,0.00,,---,0.00,VWS V14.01,2013-01-29 13:35:00,
2013-01-29 05:40:00,36.6,35.3,30.26,East,97,0.0,0.0,95,0.00,,---,0.00,VWS V14.01,2013-01-29 13:40:00,
2013-01-29 05:45:00,36.5,35.2,30.26,East,97,0.0,0.0,95,0.00,,---,0.00,VWS V14.01,2013-01-29 13:45:00,
2013-01-29 05:50:00,36.5,35.5,30.26,East,97,0.0,0.0,96,0.00,,---,0.00,VWS V14.01,2013-01-29 13:50:00,
2013-01-29 05:55:00,36.8,35.8,30.26,East,97,0.0,0.0,96,0.00,,---,0.00,VWS V14.01,2013-01-29 13:55:00,
2013-01-29 06:00:00,36.6,35.6,30.26,East,97,0.0,0.0,96,0.00,,---,0.00,VWS V14.01,2013-01-29 14:00:00,
2013-01-29 06:05:00,37.0,36.0,30.27,East,97,0.0,0.0,96,0.00,,---,0.00,VWS V14.01,2013-01-29 14:05:00,
2013-01-29 06:10:00,37.3,36.3,30.27,East,97,0.0,0.0,96,0.00,,---,0.00,VWS V14.01,2013-01-29 14:10:00,
2013-01-29 06:15:00,37.6,36.6,30.27,East,97,0.0,0.0,96,0.00,,---,0.00,VWS V14.01,2013-01-29 14:15:00,
2013-01-29 06:20:00,37.8,36.8,30.28,East,97,0.0,0.0,96,0.00,,---,0.00,VWS V14.01,2013-01-29 14:20:00,
2013-01-29 06:25:00,37.6,36.6,30.28,East,97,0.0,0.0,96,0.00,,---,0.00,VWS V14.01,2013-01-29 14:25:00,
2013-01-29 06:30:00,37.8,36.8,30.28,East,97,0.0,0.0,96,0.00,,---,0.00,VWS V14.01,2013-01-29 14:30:00,
2013-01-29 06:35:00,37.8,36.8,30.29,East,97,0.0,0.0,96,0.00,,---,0.00,VWS V14.01,2013-01-29 14:35:00,
2013-01-29 06:40:00,37.6,36.6,30.29,East,97,0.0,0.0,96,0.00,,---,0.00,VWS V14.01,2013-01-29 14:40:00,
2013-01-29 06:45:00,37.8,36.8,30.29,East,97,0.0,0.0,96,0.00,,---,0.00,VWS V14.01,2013-01-29 14:45:00,
2013-01-29 06:50:00,37.8,36.8,30.29,East,97,0.0,0.0,96,0.00,,---,0.00,VWS V14.01,2013-01-29 14:50:00,
2013-01-29 06:55:00,37.6,36.6,30.29,East,97,0.0,0.0,96,0.01,,---,0.01,VWS V14.01,2013-01-29 14:55:00,
2013-01-29 07:00:00,37.5,36.5,30.29,East,97,0.0,0.0,96,0.01,,---,0.01,VWS V14.01,2013-01-29 15:00:00,
2013-01-29 07:05:00,37.5,36.5,30.29,East,97,0.0,0.0,96,0.01,,---,0.01,VWS V14.01,2013-01-29 15:05:00,
2013-01-29 07:10:00,37.5,36.5,30.29,East,97,0.0,0.0,96,0.01,,---,0.01,VWS V14.01,2013-01-29 15:10:00,
2013-01-29 07:15:00,37.3,36.3,30.29,East,97,0.0,0.0,96,0.01,,---,0.01,VWS V14.01,2013-01-29 15:15:00,
2013-01-29 07:20:00,37.3,36.3,30.30,East,97,0.0,0.0,96,0.01,,---,0.01,VWS V14.01,2013-01-29 15:20:00,
2013-01-29 07:25:00,37.2,36.2,30.30,East,97,0.0,0.0,96,0.01,,---,0.01,VWS V14.01,2013-01-29 15:25:00,
2013-01-29 07:30:00,37.2,36.2,30.30,East,97,0.0,0.0,96,0.01,,---,0.01,VWS V14.01,2013-01-29 15:30:00,
2013-01-29 07:35:00,37.0,36.0,30.30,East,97,0.0,0.0,96,0.01,,---,0.01,VWS V14.01,2013-01-29 15:35:00,
2013-01-29 07:40:00,36.9,35.9,30.30,East,97,0.0,0.0,96,0.01,,---,0.01,VWS V14.01,2013-01-29 15:40:00,
2013-01-29 07:45:00,36.9,35.9,30.30,East,97,0.0,0.0,96,0.01,,---,0.01,VWS V14.01,2013-01-29 15:45:00,
2013-01-29 07:50:00,36.9,35.9,30.31,East,97,0.0,0.0,96,0.01,,---,0.01,VWS V14.01,2013-01-29 15:50:00,
2013-01-29 07:55:00,37.0,36.0,30.31,East,97,0.0,0.0,96,0.01,,---,0.01,VWS V14.01,2013-01-29 15:55:00,
2013-01-29 08:00:00,37.2,36.2,30.31,East,97,0.0,0.0,96,0.01,,---,0.01,VWS V14.01,2013-01-29 16:00:00,
2013-01-29 08:05:00,37.2,36.2,30.31,East,97,0.0,0.0,96,0.00,,---,0.01,VWS V14.01,2013-01-29 16:05:00,
2013-01-29 08:10:00,37.2,36.2,30.31,East,97,0.0,0.0,96,0.00,,---,0.01,VWS V14.01,2013-01-29 16:10:00,
2013-01-29 08:15:00,37.3,36.3,30.31,East,97,0.0,0.0,96,0.00,,---,0.01,VWS V14.01,2013-01-29 16:15:00,
2013-01-29 08:20:00,37.5,36.5,30.30,East,97,0.0,0.0,96,0.00,,---,0.01,VWS V14.01,2013-01-29 16:20:00,
2013-01-29 08:25:00,37.6,36.6,30.30,East,97,0.0,0.0,96,0.00,,---,0.01,VWS V14.01,2013-01-29 16:25:00,
2013-01-29 08:30:00,37.9,36.9,30.30,East,97,0.0,0.0,96,0.00,,---,0.01,VWS V14.01,2013-01-29 16:30:00,
2013-01-29 08:35:00,38.3,37.5,30.31,East,97,0.0,0.0,97,0.00,,---,0.01,VWS V14.01,2013-01-29 16:35:00,
2013-01-29 08:40:00,38.9,38.1,30.31,East,97,0.0,0.0,97,0.00,,---,0.01,VWS V14.01,2013-01-29 16:40:00,
2013-01-29 08:45:00,39.3,38.5,30.31,East,97,0.0,0.0,97,0.00,,---,0.01,VWS V14.01,2013-01-29 16:45:00,
2013-01-29 08:50:00,39.6,38.8,30.31,East,97,0.0,0.0,97,0.00,,---,0.01,VWS V14.01,2013-01-29 16:50:00,
2013-01-29 08:55:00,39.9,39.1,30.31,East,97,0.0,0.0,97,0.00,,---,0.01,VWS V14.01,2013-01-29 16:55:00,
2013-01-29 09:00:00,40.3,39.5,30.31,East,97,0.0,0.0,97,0.00,,---,0.01,VWS V14.01,2013-01-29 17:00:00,
2013-01-29 09:06:00,40.8,40.0,30.31,East,97,0.0,0.0,97,0.00,,---,0.01,VWS V14.01,2013-01-29 17:06:00,
2013-01-29 09:11:00,41.3,40.5,30.31,East,97,0.0,0.0,97,0.00,,---,0.01,VWS V14.01,2013-01-29 17:11:00,
2013-01-29 09:16:00,41.9,41.1,30.31,East,97,0.0,0.0,97,0.00,,---,0.01,VWS V14.01,2013-01-29 17:16:00,
2013-01-29 09:21:00,42.1,41.3,30.31,East,97,0.0,0.0,97,0.00,,---,0.01,VWS V14.01,2013-01-29 17:21:00,
2013-01-29 09:26:00,42.2,41.1,30.31,East,97,0.0,0.0,96,0.00,,---,0.01,VWS V14.01,2013-01-29 17:26:00,
2013-01-29 09:31:00,42.5,41.7,30.30,East,97,0.0,0.0,97,0.00,,---,0.01,VWS V14.01,2013-01-29 17:31:00,
2013-01-29 09:36:00,42.9,42.1,30.30,East,97,0.0,0.0,97,0.00,,---,0.01,VWS V14.01,2013-01-29 17:36:00,
2013-01-29 09:41:00,43.5,42.7,30.30,East,97,0.0,0.0,97,0.00,,---,0.01,VWS V14.01,2013-01-29 17:41:00,
2013-01-29 09:46:00,43.9,43.1,30.30,East,97,0.0,0.0,97,0.00,,---,0.01,VWS V14.01,2013-01-29 17:46:00,
2013-01-29 09:51:00,44.3,43.5,30.30,East,97,0.0,0.0,97,0.00,,---,0.01,VWS V14.01,2013-01-29 17:51:00,
2013-01-29 09:56:00,44.8,44.0,30.30,East,97,0.0,0.0,97,0.00,,---,0.01,VWS V14.01,2013-01-29 17:56:00,
2013-01-29 10:01:00,44.9,43.8,30.31,East,97,0.0,0.0,96,0.00,,---,0.01,VWS V14.01,2013-01-29 18:01:00,
2013-01-29 10:06:00,45.2,44.1,30.31,East,97,0.0,0.0,96,0.00,,---,0.01,VWS V14.01,2013-01-29 18:06:00,
2013-01-29 10:11:00,45.4,44.3,30.31,East,97,0.0,0.0,96,0.00,,---,0.01,VWS V14.01,2013-01-29 18:11:00,
2013-01-29 10:16:00,45.7,44.6,30.31,East,97,0.0,0.0,96,0.00,,---,0.01,VWS V14.01,2013-01-29 18:16:00,
2013-01-29 10:21:00,46.0,44.7,30.31,East,97,0.0,0.0,95,0.00,,---,0.01,VWS V14.01,2013-01-29 18:21:00,
2013-01-29 10:26:00,46.1,44.8,30.31,East,97,0.0,0.0,95,0.00,,---,0.01,VWS V14.01,2013-01-29 18:26:00,
2013-01-29 10:31:00,46.4,44.8,30.30,East,97,0.0,0.0,94,0.00,,---,0.01,VWS V14.01,2013-01-29 18:31:00,
2013-01-29 10:36:00,46.7,44.5,30.30,East,97,0.0,0.0,92,0.00,,---,0.01,VWS V14.01,2013-01-29 18:36:00,
2013-01-29 10:41:00,47.0,44.5,30.30,East,97,0.0,0.0,91,0.00,,---,0.01,VWS V14.01,2013-01-29 18:41:00,
2013-01-29 10:46:00,47.3,44.2,30.30,East,97,0.0,0.0,89,0.00,,---,0.01,VWS V14.01,2013-01-29 18:46:00,
2013-01-29 10:51:00,47.9,44.2,30.30,East,97,0.0,0.0,87,0.00,,---,0.01,VWS V14.01,2013-01-29 18:51:00,
2013-01-29 10:56:00,48.5,44.2,30.30,NE,55,0.0,1.0,85,0.00,,---,0.01,VWS V14.01,2013-01-29 18:56:00,
2013-01-29 11:01:00,48.9,44.3,30.30,NE,55,0.0,1.0,84,0.00,,---,0.01,VWS V14.01,2013-01-29 19:01:00,
2013-01-29 11:06:00,49.5,44.2,30.30,NE,55,0.0,0.0,82,0.00,,---,0.01,VWS V14.01,2013-01-29 19:06:00,
2013-01-29 11:11:00,49.9,44.3,30.30,NE,55,0.0,0.0,81,0.00,,---,0.01,VWS V14.01,2013-01-29 19:11:00,
2013-01-29 11:16:00,50.7,44.1,30.30,West,265,0.0,3.0,78,0.00,,---,0.01,VWS V14.01,2013-01-29 19:16:00,
2013-01-29 11:21:00,51.3,44.0,30.30,West,265,0.0,3.0,76,0.00,,---,0.01,VWS V14.01,2013-01-29 19:21:00,
2013-01-29 11:26:00,51.7,44.0,30.30,West,265,0.0,3.0,75,0.00,,---,0.01,VWS V14.01,2013-01-29 19:26:00,
2013-01-29 11:31:00,52.3,43.5,30.30,West,265,0.0,3.0,72,0.00,,---,0.01,VWS V14.01,2013-01-29 19:31:00,
2013-01-29 11:36:00,52.6,43.5,30.30,West,265,0.0,0.0,71,0.00,,---,0.01,VWS V14.01,2013-01-29 19:36:00,
2013-01-29 11:41:00,52.6,43.5,30.30,West,265,0.0,0.0,71,0.00,,---,0.01,VWS V14.01,2013-01-29 19:41:00,
2013-01-29 11:46:00,52.9,43.8,30.28,NW,323,0.0,3.0,71,0.00,,---,0.01,VWS V14.01,2013-01-29 19:46:00,
2013-01-29 11:51:00,53.2,43.7,30.28,NW,323,1.0,3.0,70,0.00,,---,0.01,VWS V14.01,2013-01-29 19:51:00,
2013-01-29 11:56:00,53.2,43.3,30.28,NW,323,0.0,3.0,69,0.00,,---,0.01,VWS V14.01,2013-01-29 19:56:00,
2013-01-29 11:58:00,53.3,43.4,30.28,NW,323,0.0,3.0,69,0.00,,---,0.01,VWS V14.01,2013-01-29 19:58:00,
2013-01-29 12:03:00,53.6,43.7,30.28,NW,323,0.0,0.0,69,0.00,,---,0.01,VWS V14.01,2013-01-29 20:03:00,
2013-01-29 12:08:00,54.1,43.8,30.28,WSW,253,0.0,4.0,68,0.00,,---,0.01,VWS V14.01,2013-01-29 20:08:00,
2013-01-29 12:13:00,54.5,44.2,30.28,WSW,252,0.0,4.0,68,0.00,,---,0.01,VWS V14.01,2013-01-29 20:13:00,
2013-01-29 12:18:00,54.7,44.0,30.27,WSW,252,0.0,4.0,67,0.00,,---,0.01,VWS V14.01,2013-01-29 20:18:00,
2013-01-29 12:23:00,54.5,43.4,30.27,WSW,252,0.0,4.0,66,0.00,,---,0.01,VWS V14.01,2013-01-29 20:23:00,
2013-01-29 12:28:00,54.7,43.6,30.27,West,263,1.0,4.0,66,0.00,,---,0.01,VWS V14.01,2013-01-29 20:28:00,
2013-01-29 12:33:00,55.0,43.5,30.26,West,263,0.0,0.0,65,0.00,,---,0.01,VWS V14.01,2013-01-29 20:33:00,
2013-01-29 12:38:00,55.3,44.2,30.26,West,263,1.0,3.0,66,0.00,,---,0.01,VWS V14.01,2013-01-29 20:38:00,
2013-01-29 12:43:00,55.6,43.6,30.26,West,269,0.0,3.0,64,0.00,,---,0.01,VWS V14.01,2013-01-29 20:43:00,
2013-01-29 12:48:00,55.3,43.3,30.25,West,269,0.0,3.0,64,0.00,,---,0.01,VWS V14.01,2013-01-29 20:48:00,
2013-01-29 12:53:00,55.1,43.6,30.25,West,269,0.0,3.0,65,0.00,,---,0.01,VWS V14.01,2013-01-29 20:53:00,
2013-01-29 12:58:00,55.6,43.6,30.25,West,269,0.0,3.0,64,0.00,,---,0.01,VWS V14.01,2013-01-29 20:58:00,
2013-01-29 13:03:00,55.7,43.3,30.25,WNW,282,0.0,0.0,63,0.00,,---,0.01,VWS V14.01,2013-01-29 21:03:00,
2013-01-29 13:08:00,56.0,44.0,30.25,WNW,282,0.0,0.0,64,0.00,,---,0.01,VWS V14.01,2013-01-29 21:08:00,
2013-01-29 13:13:00,56.2,43.4,30.25,WNW,282,0.0,0.0,62,0.00,,---,0.01,VWS V14.01,2013-01-29 21:13:00,
2013-01-29 13:18:00,56.2,43.8,30.24,WNW,282,0.0,0.0,63,0.00,,---,0.01,VWS V14.01,2013-01-29 21:18:00,
2013-01-29 13:23:00,56.2,43.4,30.24,WNW,282,0.0,0.0,62,0.00,,---,0.01,VWS V14.01,2013-01-29 21:23:00,
2013-01-29 13:28:00,56.3,43.5,30.24,NNW,329,0.0,2.0,62,0.00,,---,0.01,VWS V14.01,2013-01-29 21:28:00,
2013-01-29 13:33:00,56.7,43.8,30.23,NNW,329,0.0,0.0,62,0.00,,---,0.01,VWS V14.01,2013-01-29 21:33:00,
2013-01-29 13:38:00,57.2,43.5,30.23,SSW,200,0.0,4.0,60,0.00,,---,0.01,VWS V14.01,2013-01-29 21:38:00,
2013-01-29 13:43:00,57.5,44.2,30.23,SSW,200,0.0,4.0,61,0.00,,---,0.01,VWS V14.01,2013-01-29 21:43:00,
2013-01-29 13:48:00,57.8,44.5,30.23,West,270,0.0,4.0,61,0.00,,---,0.01,VWS V14.01,2013-01-29 21:48:00,
2013-01-29 13:53:00,57.5,43.3,30.23,NE,55,0.0,4.0,59,0.00,,---,0.01,VWS V14.01,2013-01-29 21:53:00,
2013-01-29 13:58:00,57.3,44.0,30.23,West,267,0.0,4.0,61,0.00,,---,0.01,VWS V14.01,2013-01-29 21:58:00,
2013-01-29 14:03:00,57.5,44.2,30.22,West,267,0.0,3.0,61,0.00,,---,0.01,VWS V14.01,2013-01-29 22:03:00,
2013-01-29 14:08:00,58.0,44.6,30.22,West,267,0.0,3.0,61,0.00,,---,0.01,VWS V14.01,2013-01-29 22:08:00,
2013-01-29 14:13:00,58.4,44.1,30.22,SW,225,0.0,3.0,59,0.00,,---,0.01,VWS V14.01,2013-01-29 22:13:00,
2013-01-29 14:18:00,58.3,44.5,30.21,WSW,248,0.0,5.0,60,0.00,,---,0.01,VWS V14.01,2013-01-29 22:18:00,
2013-01-29 14:23:00,58.3,44.0,30.21,WSW,247,0.0,5.0,59,0.00,,---,0.01,VWS V14.01,2013-01-29 22:23:00,
2013-01-29 14:28:00,58.4,44.1,30.21,WSW,247,0.0,5.0,59,0.00,,---,0.01,VWS V14.01,2013-01-29 22:28:00,
2013-01-29 14:33:00,58.9,44.2,30.22,WSW,238,0.0,0.0,58,0.00,,---,0.01,VWS V14.01,2013-01-29 22:33:00,
2013-01-29 14:38:00,59.0,44.3,30.22,WNW,284,0.0,4.0,58,0.00,,---,0.01,VWS V14.01,2013-01-29 22:38:00,
2013-01-29 14:43:00,59.0,44.3,30.22,WSW,240,4.0,4.0,58,0.00,,---,0.01,VWS V14.01,2013-01-29 22:43:00,
2013-01-29 14:48:00,58.4,44.6,30.22,South,188,5.0,5.0,60,0.00,,---,0.01,VWS V14.01,2013-01-29 22:48:00,
2013-01-29 14:53:00,58.1,44.3,30.22,West,279,0.0,6.0,60,0.00,,---,0.01,VWS V14.01,2013-01-29 22:53:00,
2013-01-29 14:58:00,58.1,44.3,30.22,SW,223,0.0,6.0,60,0.00,,---,0.01,VWS V14.01,2013-01-29 22:58:00,
2013-01-29 15:03:00,58.3,44.9,30.22,SW,223,0.0,0.0,61,0.00,,---,0.01,VWS V14.01,2013-01-29 23:03:00,
2013-01-29 15:08:00,58.3,44.5,30.22,South,176,0.0,5.0,60,0.00,,---,0.01,VWS V14.01,2013-01-29 23:08:00,
2013-01-29 15:13:00,58.1,44.3,30.22,SSW,209,0.0,5.0,60,0.00,,---,0.01,VWS V14.01,2013-01-29 23:13:00,
2013-01-29 15:18:00,58.0,45.1,30.22,SSW,209,0.0,5.0,62,0.00,,---,0.01,VWS V14.01,2013-01-29 23:18:00,
2013-01-29 15:23:00,57.8,44.9,30.22,WSW,238,0.0,5.0,62,0.00,,---,0.01,VWS V14.01,2013-01-29 23:23:00,
2013-01-29 15:28:00,57.6,44.7,30.22,SW,221,2.0,5.0,62,0.00,,---,0.01,VWS V14.01,2013-01-29 23:28:00,
2013-01-29 15:33:00,57.3,44.8,30.22,SE,143,0.0,7.0,63,0.00,,---,0.01,VWS V14.01,2013-01-29 23:33:00,
2013-01-29 15:38:00,57.2,44.7,30.22,SE,146,0.0,7.0,63,0.00,,---,0.01,VWS V14.01,2013-01-29 23:38:00,
2013-01-29 15:43:00,57.2,45.2,30.22,SE,146,0.0,7.0,64,0.00,,---,0.01,VWS V14.01,2013-01-29 23:43:00,
2013-01-29 15:48:00,57.5,45.0,30.23,SE,146,0.0,7.0,63,0.00,,---,0.01,VWS V14.01,2013-01-29 23:48:00,
2013-01-29 15:53:00,57.8,44.5,30.23,SE,146,0.0,7.0,61,0.00,,---,0.01,VWS V14.01,2013-01-29 23:53:00,
2013-01-29 15:58:00,58.0,44.6,30.23,SE,142,0.0,7.0,61,0.00,,---,0.01,VWS V14.01,2013-01-29 23:58:00,
2013-01-29 16:03:00,57.5,44.6,30.23,SE,142,0.0,0.0,62,0.00,,---,0.01,VWS V14.01,2013-01-30 00:03:00,
2013-01-29 16:08:00,57.5,44.6,30.23,SE,142,0.0,1.0,62,0.00,,---,0.01,VWS V14.01,2013-01-30 00:08:00,
2013-01-29 16:14:00,57.6,45.1,30.23,SE,142,0.0,1.0,63,0.00,,---,0.01,VWS V14.01,2013-01-30 00:14:00,
2013-01-29 16:19:00,57.5,45.4,30.23,SSW,203,0.0,1.0,64,0.00,,---,0.01,VWS V14.01,2013-01-30 00:19:00,
2013-01-29 16:24:00,57.2,45.6,30.23,SSW,204,0.0,1.0,65,0.00,,---,0.01,VWS V14.01,2013-01-30 00:24:00,
2013-01-29 16:29:00,56.9,45.3,30.23,SSW,204,0.0,1.0,65,0.00,,---,0.01,VWS V14.01,2013-01-30 00:29:00,
2013-01-29 16:34:00,56.6,45.8,30.23,SSW,204,0.0,0.0,67,0.00,,---,0.01,VWS V14.01,2013-01-30 00:34:00,
2013-01-29 16:39:00,56.2,46.2,30.23,SSW,204,0.0,0.0,69,0.00,,---,0.01,VWS V14.01,2013-01-30 00:39:00,
2013-01-29 16:44:00,55.6,46.4,30.23,SSW,204,0.0,0.0,71,0.00,,---,0.01,VWS V14.01,2013-01-30 00:44:00,
2013-01-29 16:49:00,55.0,46.2,30.23,SSW,204,0.0,0.0,72,0.00,,---,0.01,VWS V14.01,2013-01-30 00:49:00,
2013-01-29 16:54:00,54.5,46.0,30.23,SSW,204,0.0,3.0,73,0.00,,---,0.01,VWS V14.01,2013-01-30 00:54:00,
2013-01-29 16:59:00,54.4,45.6,30.23,SSW,204,0.0,3.0,72,0.00,,---,0.01,VWS V14.01,2013-01-30 00:59:00,
2013-01-29 17:04:00,54.1,45.7,30.23,SSW,204,0.0,0.0,73,0.00,,---,0.01,VWS V14.01,2013-01-30 01:04:00,
2013-01-29 17:09:00,53.6,45.9,30.23,SSW,204,0.0,0.0,75,0.00,,---,0.01,VWS V14.01,2013-01-30 01:09:00,
2013-01-29 17:14:00,53.1,45.8,30.23,SSW,204,0.0,0.0,76,0.00,,---,0.01,VWS V14.01,2013-01-30 01:14:00,
2013-01-29 17:19:00,52.5,45.8,30.23,SSW,204,0.0,0.0,78,0.00,,---,0.01,VWS V14.01,2013-01-30 01:19:00,
2013-01-29 17:24:00,52.0,45.4,30.23,SSW,204,0.0,0.0,78,0.00,,---,0.01,VWS V14.01,2013-01-30 01:24:00,
2013-01-29 17:29:00,51.6,45.0,30.23,SSW,204,0.0,0.0,78,0.00,,---,0.01,VWS V14.01,2013-01-30 01:29:00,
2013-01-29 17:34:00,51.1,45.2,30.23,SSW,204,0.0,0.0,80,0.00,,---,0.01,VWS V14.01,2013-01-30 01:34:00,
2013-01-29 17:39:00,50.7,45.1,30.23,SSW,204,0.0,0.0,81,0.00,,---,0.01,VWS V14.01,2013-01-30 01:39:00,
2013-01-29 17:44:00,50.4,44.8,30.23,SSW,204,0.0,0.0,81,0.00,,---,0.01,VWS V14.01,2013-01-30 01:44:00,
2013-01-29 17:49:00,49.9,44.6,30.23,SSW,204,0.0,0.0,82,0.00,,---,0.01,VWS V14.01,2013-01-30 01:49:00,
2013-01-29 17:54:00,49.6,44.3,30.23,SSW,204,0.0,0.0,82,0.00,,---,0.01,VWS V14.01,2013-01-30 01:54:00,
2013-01-29 17:59:00,49.5,44.6,30.23,SSW,204,0.0,0.0,83,0.00,,---,0.01,VWS V14.01,2013-01-30 01:59:00,
2013-01-29 18:04:00,49.1,44.2,30.24,SSW,204,0.0,0.0,83,0.00,,---,0.01,VWS V14.01,2013-01-30 02:04:00,
2013-01-29 18:09:00,48.8,44.2,30.24,SSW,204,0.0,0.0,84,0.00,,---,0.01,VWS V14.01,2013-01-30 02:09:00,
2013-01-29 18:14:00,48.6,44.3,30.24,SSW,204,0.0,1.0,85,0.00,,---,0.01,VWS V14.01,2013-01-30 02:14:00,
2013-01-29 18:19:00,48.6,44.3,30.24,SSW,204,0.0,1.0,85,0.00,,---,0.01,VWS V14.01,2013-01-30 02:19:00,
2013-01-29 18:24:00,48.5,44.2,30.24,SSW,204,0.0,1.0,85,0.00,,---,0.01,VWS V14.01,2013-01-30 02:24:00,
2013-01-29 18:29:00,48.3,44.0,30.24,SSW,204,0.0,1.0,85,0.00,,---,0.01,VWS V14.01,2013-01-30 02:29:00,
2013-01-29 18:34:00,48.0,43.7,30.24,SSW,204,0.0,0.0,85,0.00,,---,0.01,VWS V14.01,2013-01-30 02:34:00,
2013-01-29 18:39:00,47.7,43.4,30.24,SSW,204,0.0,0.0,85,0.00,,---,0.01,VWS V14.01,2013-01-30 02:39:00,
2013-01-29 18:44:00,47.4,43.4,30.24,SSW,204,0.0,0.0,86,0.00,,---,0.01,VWS V14.01,2013-01-30 02:44:00,
2013-01-29 18:49:00,47.1,43.4,30.24,SSW,204,0.0,0.0,87,0.00,,---,0.01,VWS V14.01,2013-01-30 02:49:00,
2013-01-29 18:54:00,47.0,43.3,30.24,SSW,204,0.0,0.0,87,0.00,,---,0.01,VWS V14.01,2013-01-30 02:54:00,
2013-01-29 18:59:00,46.8,43.4,30.24,SSW,204,0.0,0.0,88,0.00,,---,0.01,VWS V14.01,2013-01-30 02:59:00,
2013-01-29 19:04:00,46.8,43.4,30.24,SSW,204,0.0,0.0,88,0.00,,---,0.01,VWS V14.01,2013-01-30 03:04:00,
2013-01-29 19:09:00,47.0,43.9,30.24,SSW,204,0.0,0.0,89,0.00,,---,0.01,VWS V14.01,2013-01-30 03:09:00,
2013-01-29 19:14:00,46.8,43.4,30.24,SSW,204,0.0,0.0,88,0.00,,---,0.01,VWS V14.01,2013-01-30 03:14:00,
2013-01-29 19:19:00,46.7,43.3,30.24,SSW,204,0.0,0.0,88,0.00,,---,0.01,VWS V14.01,2013-01-30 03:19:00,
2013-01-29 19:24:00,46.5,43.1,30.24,SSW,204,0.0,0.0,88,0.00,,---,0.01,VWS V14.01,2013-01-30 03:24:00,
2013-01-29 19:29:00,46.2,42.8,30.24,SSW,204,0.0,0.0,88,0.00,,---,0.01,VWS V14.01,2013-01-30 03:29:00,
2013-01-29 19:34:00,46.0,43.0,30.25,SSW,204,0.0,0.0,89,0.00,,---,0.01,VWS V14.01,2013-01-30 03:34:00,
2013-01-29 19:39:00,45.7,42.7,30.25,SSW,204,0.0,0.0,89,0.00,,---,0.01,VWS V14.01,2013-01-30 03:39:00,
2013-01-29 19:44:00,45.7,42.7,30.25,SSW,204,0.0,0.0,89,0.00,,---,0.01,VWS V14.01,2013-01-30 03:44:00,
2013-01-29 19:49:00,45.5,42.5,30.25,SSW,204,0.0,0.0,89,0.00,,---,0.01,VWS V14.01,2013-01-30 03:49:00,
2013-01-29 19:54:00,45.5,42.7,30.25,SSW,204,0.0,0.0,90,0.00,,---,0.01,VWS V14.01,2013-01-30 03:54:00,
2013-01-29 19:59:00,45.4,42.6,30.25,SSW,204,0.0,0.0,90,0.00,,---,0.01,VWS V14.01,2013-01-30 03:59:00,
2013-01-29 20:04:00,45.4,42.9,30.25,SSW,204,0.0,0.0,91,0.00,,---,0.01,VWS V14.01,2013-01-30 04:04:00,
2013-01-29 20:09:00,45.5,43.0,30.25,SSW,204,0.0,0.0,91,0.00,,---,0.01,VWS V14.01,2013-01-30 04:09:00,
2013-01-29 20:14:00,45.4,42.9,30.25,SSW,204,0.0,0.0,91,0.00,,---,0.01,VWS V14.01,2013-01-30 04:14:00,
2013-01-29 20:19:00,45.2,42.7,30.25,SSW,204,0.0,0.0,91,0.00,,---,0.01,VWS V14.01,2013-01-30 04:19:00,
2013-01-29 20:24:00,45.4,42.9,30.25,SSW,204,0.0,0.0,91,0.00,,---,0.01,VWS V14.01,2013-01-30 04:24:00,
2013-01-29 20:29:00,45.1,42.6,30.25,SSW,204,0.0,0.0,91,0.00,,---,0.01,VWS V14.01,2013-01-30 04:29:00,
2013-01-29 20:34:00,44.8,42.3,30.25,SSW,204,0.0,0.0,91,0.00,,---,0.01,VWS V14.01,2013-01-30 04:34:00,
2013-01-29 20:39:00,44.6,42.1,30.25,SSW,204,0.0,0.0,91,0.00,,---,0.01,VWS V14.01,2013-01-30 04:39:00,
2013-01-29 20:44:00,44.5,42.0,30.25,SSW,204,0.0,0.0,91,0.00,,---,0.01,VWS V14.01,2013-01-30 04:44:00,
2013-01-29 20:49:00,44.6,42.4,30.26,SSW,204,0.0,0.0,92,0.00,,---,0.01,VWS V14.01,2013-01-30 04:49:00,
2013-01-29 20:54:00,44.6,42.4,30.26,SSW,204,0.0,0.0,92,0.00,,---,0.01,VWS V14.01,2013-01-30 04:54:00,
2013-01-29 20:59:00,44.3,42.1,30.26,SSW,204,0.0,0.0,92,0.00,,---,0.01,VWS V14.01,2013-01-30 04:59:00,
2013-01-29 21:01:00,44.2,42.0,30.26,SSW,204,0.0,0.0,92,0.00,,---,0.01,VWS V14.01,2013-01-30 05:01:00,
2013-01-29 21:02:00,44.2,42.0,30.26,SSW,204,0.0,0.0,92,0.00,,---,0.01,VWS V14.01,2013-01-30 05:02:00,
2013-01-29 21:03:00,44.1,41.9,30.26,SSW,204,0.0,0.0,92,0.00,,---,0.01,VWS V14.01,2013-01-30 05:03:00,
2013-01-29 21:04:00,44.1,42.0,30.26,SSW,204,0.0,-999.0,92,-99.99,,,0.01,weatherlink.com 1.10,2013-01-30 05:04:00,
2013-01-29 21:09:00,43.9,41.7,30.26,SSW,204,0.0,0.0,92,0.00,,---,0.01,VWS V14.01,2013-01-30 05:09:00,
2013-01-29 21:14:00,43.8,41.6,30.26,SSW,204,0.0,0.0,92,0.00,,---,0.01,VWS V14.01,2013-01-30 05:14:00,
2013-01-29 21:19:00,43.8,41.6,30.26,SSW,204,0.0,0.0,92,0.00,,---,0.01,VWS V14.01,2013-01-30 05:19:00,
2013-01-29 21:24:00,43.8,41.6,30.26,SSW,204,0.0,0.0,92,0.00,,---,0.01,VWS V14.01,2013-01-30 05:24:00,
2013-01-29 21:29:00,43.6,41.4,30.26,SSW,204,0.0,0.0,92,0.00,,---,0.01,VWS V14.01,2013-01-30 05:29:00,
2013-01-29 21:34:00,43.6,41.7,30.26,SSW,204,0.0,0.0,93,0.00,,---,0.01,VWS V14.01,2013-01-30 05:34:00,
2013-01-29 21:39:00,43.5,41.6,30.26,SSW,204,0.0,0.0,93,0.00,,---,0.01,VWS V14.01,2013-01-30 05:39:00,
2013-01-29 21:44:00,43.5,41.6,30.26,SSW,204,0.0,0.0,93,0.00,,---,0.01,VWS V14.01,2013-01-30 05:44:00,
2013-01-29 21:49:00,43.5,41.6,30.25,SSW,204,0.0,0.0,93,0.00,,---,0.01,VWS V14.01,2013-01-30 05:49:00,
2013-01-29 21:54:00,43.3,41.1,30.25,SSW,204,0.0,0.0,92,0.00,,---,0.01,VWS V14.01,2013-01-30 05:54:00,
2013-01-29 21:59:00,43.2,41.0,30.25,SSW,204,0.0,0.0,92,0.00,,---,0.01,VWS V14.01,2013-01-30 05:59:00,
2013-01-29 22:04:00,42.9,40.7,30.25,SSW,204,0.0,0.0,92,0.00,,---,0.01,VWS V14.01,2013-01-30 06:04:00,
2013-01-29 22:09:00,42.8,40.9,30.25,SSW,204,0.0,0.0,93,0.00,,---,0.01,VWS V14.01,2013-01-30 06:09:00,
2013-01-29 22:14:00,43.2,41.3,30.25,SSW,204,0.0,0.0,93,0.00,,---,0.01,VWS V14.01,2013-01-30 06:14:00,
2013-01-29 22:19:00,43.5,41.6,30.25,SSW,197,0.0,0.0,93,0.00,,---,0.01,VWS V14.01,2013-01-30 06:19:00,
2013-01-29 22:25:00,43.9,42.3,30.25,SE,143,0.0,0.0,94,0.00,,---,0.01,VWS V14.01,2013-01-30 06:25:00,
2013-01-29 22:30:00,44.1,42.2,30.25,SE,143,0.0,0.0,93,0.00,,---,0.01,VWS V14.01,2013-01-30 06:30:00,
2013-01-29 22:35:00,44.1,42.2,30.25,SE,143,0.0,0.0,93,0.00,,---,0.01,VWS V14.01,2013-01-30 06:35:00,
2013-01-29 22:40:00,44.2,42.3,30.25,SE,143,0.0,0.0,93,0.00,,---,0.01,VWS V14.01,2013-01-30 06:40:00,
2013-01-29 22:45:00,44.2,42.3,30.25,SE,143,0.0,0.0,93,0.00,,---,0.01,VWS V14.01,2013-01-30 06:45:00,
2013-01-29 22:50:00,44.6,42.7,30.25,East,82,0.0,0.0,93,0.00,,---,0.01,VWS V14.01,2013-01-30 06:50:00,
2013-01-29 22:55:00,44.8,42.9,30.25,East,82,0.0,0.0,93,0.00,,---,0.01,VWS V14.01,2013-01-30 06:55:00,
2013-01-29 23:00:00,44.8,42.6,30.25,East,82,0.0,0.0,92,0.00,,---,0.01,VWS V14.01,2013-01-30 07:00:00,
2013-01-29 23:05:00,44.9,42.7,30.25,East,82,0.0,0.0,92,0.00,,---,0.01,VWS V14.01,2013-01-30 07:05:00,
2013-01-29 23:10:00,44.9,42.7,30.25,East,82,0.0,0.0,92,0.00,,---,0.01,VWS V14.01,2013-01-30 07:10:00,
2013-01-29 23:15:00,45.2,43.3,30.25,East,94,0.0,5.0,93,0.00,,---,0.01,VWS V14.01,2013-01-30 07:15:00,
2013-01-29 23:20:00,45.8,43.6,30.24,ENE,67,2.0,5.0,92,0.00,,---,0.01,VWS V14.01,2013-01-30 07:20:00,
2013-01-29 23:25:00,46.4,44.2,30.24,ENE,78,0.0,7.0,92,0.00,,---,0.01,VWS V14.01,2013-01-30 07:25:00,
2013-01-29 23:30:00,46.8,44.0,30.24,ENE,77,5.0,8.0,90,0.00,,---,0.01,VWS V14.01,2013-01-30 07:30:00,
2013-01-29 23:35:00,47.1,44.0,30.24,East,85,2.0,7.0,89,0.00,,---,0.01,VWS V14.01,2013-01-30 07:35:00,
2013-01-29 23:40:00,47.4,43.7,30.24,NE,50,6.0,11.0,87,0.00,,---,0.01,VWS V14.01,2013-01-30 07:40:00,
2013-01-29 23:45:00,47.4,43.4,30.24,East,87,4.0,11.0,86,0.00,,---,0.01,VWS V14.01,2013-01-30 07:45:00,
2013-01-29 23:50:00,47.6,43.3,30.24,ENE,78,5.0,11.0,85,0.00,,---,0.01,VWS V14.01,2013-01-30 07:50:00,
2013-01-29 23:55:00,47.6,43.0,30.24,East,88,3.0,11.0,84,0.00,,---,0.01,VWS V14.01,2013-01-30 07:55:00,